Magnolia, Washington
Current Conditions -  °F | °C
As of 5:53 AM on Friday 28 Nov 2014 (Local Time) from KBFI Reporting Station
Overcast Overcast  
Wind Chill: 57°   Ceiling: 2500
Heat Index: 57°   Visibility: 10mi
Dew Point: 49°   Wind: 14mph
Humidity: 74%   Direction: 180°S
Pressure: 29.55"   Gusts: 22mph
Location:  47.6473°N, 122.399°W
Report Text: KBFI 281353Z AUTO 18012G19KT 10SM BKN025 OVC030 14/09 A2955 RMK AO2 RAE42 SLP006 P0001 T01390094 TSNO
Loading
Personal Weather Stations






























Interactive Weather Map New forecast layout! Learn more

10-Day Weather Forecast

Advertisements
Track Severe Weather on mobile